Time;durP1;ratioP1;P1;durP2;ratioP2;P2;SDS_P1;SDS_P2;PMS_P1;PMS_P2;Temp;Humidity;BMP_temperature;BMP_pressure;BME280_temperature;BME280_humidity;BME280_pressure;Samples;Min_cycle;Max_cycle;Signal;HPM_P1;HPM_P2
2022/08/18 00:01:46;;;;;;;41.00;27.97;;;;;;;;;;5113503;28;20225;-76
2022/08/18 00:04:13;;;;;;;48.07;28.87;;;;;;;;;;5113424;28;20224;-76
2022/08/18 00:06:42;;;;;;;41.08;27.73;;;;;;;;;;5113241;28;20233;-76
2022/08/18 00:09:10;;;;;;;44.70;28.13;;;;;;;;;;5113214;28;20360;-76
2022/08/18 00:11:40;;;;;;;43.33;28.13;;;;;;;;;;5113121;28;20697;-76
2022/08/18 00:14:07;;;;;;;40.05;27.20;;;;;;;;;;5113248;28;20251;-76
2022/08/18 00:16:34;;;;;;;41.13;27.48;;;;;;;;;;5113324;28;20201;-76
2022/08/18 00:19:02;;;;;;;39.92;27.33;;;;;;;;;;5113053;28;20604;-76
2022/08/18 00:21:29;;;;;;;45.97;28.43;;;;;;;;;;5112847;28;20229;-76
2022/08/18 00:23:57;;;;;;;38.93;26.77;;;;;;;;;;5114960;28;20284;-76
2022/08/18 00:26:25;;;;;;;40.60;27.43;;;;;;;;;;5117432;28;20240;-76
2022/08/18 00:28:52;;;;;;;42.17;29.03;;;;;;;;;;5117340;28;20720;-76
2022/08/18 00:31:19;;;;;;;43.60;28.52;;;;;;;;;;5117309;27;20260;-76
2022/08/18 00:33:46;;;;;;;42.05;27.75;;;;;;;;;;5116776;28;20224;-76
2022/08/18 00:36:13;;;;;;;46.78;27.80;;;;;;;;;;5116825;28;20240;-76
2022/08/18 00:38:41;;;;;;;45.53;28.97;;;;;;;;;;5116738;28;20289;-76
2022/08/18 00:41:10;;;;;;;42.83;28.80;;;;;;;;;;5116998;28;20251;-76
2022/08/18 00:43:40;;;;;;;37.10;28.00;;;;;;;;;;5117318;28;20201;-76
2022/08/18 00:46:08;;;;;;;41.50;27.70;;;;;;;;;;5113083;28;20733;-76
2022/08/18 00:48:36;;;;;;;43.15;28.50;;;;;;;;;;5096370;28;20201;-76
2022/08/18 00:51:05;;;;;;;42.33;29.53;;;;;;;;;;5096218;28;20228;-76
2022/08/18 00:53:35;;;;;;;41.17;27.97;;;;;;;;;;5096237;28;20678;-76
2022/08/18 00:56:07;;;;;;;41.93;28.77;;;;;;;;;;5095917;28;20230;-76
2022/08/18 00:58:37;;;;;;;41.07;27.83;;;;;;;;;;5096143;28;20620;-76
2022/08/18 01:01:06;;;;;;;39.17;28.27;;;;;;;;;;5095748;28;20230;-76
2022/08/18 01:03:35;;;;;;;42.33;27.90;;;;;;;;;;5096336;28;20234;-76
2022/08/18 01:06:04;;;;;;;42.97;29.03;;;;;;;;;;5095684;28;20684;-76
2022/08/18 01:08:31;;;;;;;39.20;27.43;;;;;;;;;;5096236;28;20202;-76
2022/08/18 01:11:01;;;;;;;44.23;29.07;;;;;;;;;;5096129;28;20422;-76
2022/08/18 01:13:29;;;;;;;47.27;30.17;;;;;;;;;;5095581;28;20229;-76
2022/08/18 01:15:58;;;;;;;47.97;29.97;;;;;;;;;;5095582;28;20236;-76
2022/08/18 01:24:00;;;;;;;44.27;29.40;;;;;;;;;;5095811;28;20189;-76
2022/08/18 01:26:29;;;;;;;50.33;31.43;;;;;;;;;;5096107;28;20226;-76
2022/08/18 01:28:56;;;;;;;48.37;31.47;;;;;;;;;;5095684;28;20194;-76
2022/08/18 01:31:36;;;;;;;46.67;30.70;;;;;;;;;;5095417;28;20753;-76
2022/08/18 01:34:05;;;;;;;52.77;32.50;;;;;;;;;;5095686;28;20225;-76
2022/08/18 01:36:33;;;;;;;56.57;34.67;;;;;;;;;;5095076;28;20206;-76
2022/08/18 01:39:02;;;;;;;51.90;34.90;;;;;;;;;;5095413;28;20201;-76
2022/08/18 01:41:29;;;;;;;56.17;35.87;;;;;;;;;;5095421;28;20234;-76
2022/08/18 01:43:57;;;;;;;57.77;33.90;;;;;;;;;;5095458;28;20567;-76
2022/08/18 01:46:25;;;;;;;58.40;35.33;;;;;;;;;;5095207;28;20245;-76
2022/08/18 01:48:52;;;;;;;53.73;34.17;;;;;;;;;;5094937;28;20198;-76
2022/08/18 01:51:20;;;;;;;53.00;34.77;;;;;;;;;;5095127;28;20206;-76
2022/08/18 01:53:48;;;;;;;54.93;35.37;;;;;;;;;;5095222;28;20202;-76
2022/08/18 01:56:17;;;;;;;52.97;34.00;;;;;;;;;;5095203;28;20618;-76
2022/08/18 01:58:46;;;;;;;52.80;34.57;;;;;;;;;;5095107;28;20728;-76
2022/08/18 02:01:13;;;;;;;53.93;35.30;;;;;;;;;;5094819;28;20214;-76
2022/08/18 02:03:43;;;;;;;55.57;34.90;;;;;;;;;;5094838;28;20226;-76
2022/08/18 02:06:11;;;;;;;53.53;34.17;;;;;;;;;;5095041;28;20283;-76
2022/08/18 02:08:38;;;;;;;53.93;34.57;;;;;;;;;;5094981;28;20221;-76
2022/08/18 02:11:06;;;;;;;50.70;33.33;;;;;;;;;;5094709;28;20245;-76
2022/08/18 02:13:35;;;;;;;57.00;34.60;;;;;;;;;;5094589;28;20313;-76
2022/08/18 02:16:03;;;;;;;51.57;34.17;;;;;;;;;;5094737;28;20277;-76
2022/08/18 02:18:31;;;;;;;59.20;36.07;;;;;;;;;;5094522;28;20566;-76
2022/08/18 02:20:59;;;;;;;51.77;34.07;;;;;;;;;;5094712;28;20194;-76
2022/08/18 02:23:26;;;;;;;54.23;35.47;;;;;;;;;;5100654;28;20273;-76
2022/08/18 02:25:54;;;;;;;54.77;36.00;;;;;;;;;;5115073;28;20236;-76
2022/08/18 02:28:21;;;;;;;52.37;35.23;;;;;;;;;;5115038;28;20223;-76
2022/08/18 02:30:49;;;;;;;54.73;35.43;;;;;;;;;;5114751;28;20225;-76
2022/08/18 02:33:17;;;;;;;51.30;34.17;;;;;;;;;;5114283;28;20221;-76
2022/08/18 02:35:45;;;;;;;57.93;36.30;;;;;;;;;;5114773;28;20230;-76
2022/08/18 02:38:12;;;;;;;54.80;35.63;;;;;;;;;;5114829;28;20233;-77
2022/08/18 02:40:39;;;;;;;53.37;34.13;;;;;;;;;;5114923;28;20233;-76
2022/08/18 02:43:08;;;;;;;54.60;33.73;;;;;;;;;;5114715;28;20194;-76
2022/08/18 02:45:35;;;;;;;55.77;34.87;;;;;;;;;;5114535;28;20559;-76
2022/08/18 02:48:04;;;;;;;49.27;35.27;;;;;;;;;;5113061;28;20241;-76
2022/08/18 02:50:31;;;;;;;52.43;32.83;;;;;;;;;;5114337;27;20677;-76
2022/08/18 02:52:58;;;;;;;54.93;34.53;;;;;;;;;;5114457;28;20232;-76
2022/08/18 02:55:28;;;;;;;51.57;34.47;;;;;;;;;;5113968;28;20255;-76
2022/08/18 02:57:55;;;;;;;54.53;35.13;;;;;;;;;;5114370;28;20282;-76
2022/08/18 03:00:22;;;;;;;54.50;35.40;;;;;;;;;;5114102;28;20292;-76
2022/08/18 03:02:50;;;;;;;57.10;34.77;;;;;;;;;;5114002;28;20285;-76
2022/08/18 03:05:19;;;;;;;58.53;34.97;;;;;;;;;;5114556;28;20280;-76
2022/08/18 03:07:48;;;;;;;59.73;35.80;;;;;;;;;;5113803;27;20193;-77
2022/08/18 03:10:16;;;;;;;67.43;37.67;;;;;;;;;;5114107;28;20198;-76
2022/08/18 03:12:43;;;;;;;63.80;37.23;;;;;;;;;;5113687;28;20265;-76
2022/08/18 03:15:11;;;;;;;76.03;38.17;;;;;;;;;;5113935;28;20676;-76
2022/08/18 03:17:38;;;;;;;75.20;38.90;;;;;;;;;;5113854;28;20673;-77
2022/08/18 03:20:06;;;;;;;74.33;38.63;;;;;;;;;;5113737;28;20229;-76
2022/08/18 03:22:35;;;;;;;73.70;38.23;;;;;;;;;;5114245;28;20193;-76
2022/08/18 03:25:02;;;;;;;69.77;36.87;;;;;;;;;;5113694;28;20640;-76
2022/08/18 03:27:29;;;;;;;74.33;39.43;;;;;;;;;;5113814;28;20209;-76
2022/08/18 03:29:57;;;;;;;72.50;37.60;;;;;;;;;;5113863;28;20230;-76
2022/08/18 03:32:24;;;;;;;66.40;37.60;;;;;;;;;;5113601;28;20647;-76
2022/08/18 03:34:51;;;;;;;65.63;37.27;;;;;;;;;;5113598;28;20240;-76
2022/08/18 03:37:18;;;;;;;68.10;37.50;;;;;;;;;;5113882;28;20241;-76
2022/08/18 03:39:50;;;;;;;69.27;38.40;;;;;;;;;;5113312;28;20240;-76
2022/08/18 03:42:17;;;;;;;66.77;37.13;;;;;;;;;;5113559;28;20197;-76
2022/08/18 03:44:45;;;;;;;63.03;37.40;;;;;;;;;;5113360;27;20194;-76
2022/08/18 03:47:12;;;;;;;62.70;37.30;;;;;;;;;;5113547;28;20602;-76
2022/08/18 03:49:40;;;;;;;64.37;36.77;;;;;;;;;;5113461;28;20698;-76
2022/08/18 03:52:08;;;;;;;62.40;36.47;;;;;;;;;;5113756;28;20244;-76
2022/08/18 03:54:37;;;;;;;58.40;35.90;;;;;;;;;;5113518;28;20626;-77
2022/08/18 03:57:08;;;;;;;59.97;35.70;;;;;;;;;;5113243;28;20237;-76
2022/08/18 03:59:35;;;;;;;60.57;35.67;;;;;;;;;;5112984;28;20292;-76
2022/08/18 04:02:04;;;;;;;61.17;35.23;;;;;;;;;;5113510;28;20237;-76
2022/08/18 04:04:31;;;;;;;66.07;36.60;;;;;;;;;;5113404;28;20198;-76
2022/08/18 04:07:06;;;;;;;72.63;38.53;;;;;;;;;;5113394;28;20569;-76
2022/08/18 04:09:34;;;;;;;74.97;38.63;;;;;;;;;;5113321;28;20197;-76
2022/08/18 04:12:04;;;;;;;72.70;38.87;;;;;;;;;;5113117;28;20288;-76
2022/08/18 04:14:33;;;;;;;76.20;39.30;;;;;;;;;;5113066;28;20560;-76
2022/08/18 04:17:00;;;;;;;70.77;39.30;;;;;;;;;;5113074;28;20337;-76
2022/08/18 04:19:27;;;;;;;69.97;39.20;;;;;;;;;;5113177;28;20233;-76
2022/08/18 04:21:55;;;;;;;66.33;38.03;;;;;;;;;;5113003;28;20297;-76
2022/08/18 04:24:22;;;;;;;67.67;38.80;;;;;;;;;;5109585;28;20238;-77
2022/08/18 04:26:50;;;;;;;69.80;38.10;;;;;;;;;;5092668;28;20682;-76
2022/08/18 04:29:19;;;;;;;66.23;38.03;;;;;;;;;;5092674;28;20198;-76
2022/08/18 04:31:48;;;;;;;63.43;35.93;;;;;;;;;;5092692;28;20202;-76
2022/08/18 04:34:16;;;;;;;63.53;37.03;;;;;;;;;;5092532;28;20230;-76
2022/08/18 04:36:43;;;;;;;64.30;36.50;;;;;;;;;;5092726;28;20234;-76
2022/08/18 04:39:11;;;;;;;61.77;35.27;;;;;;;;;;5092656;28;20253;-76
2022/08/18 04:41:39;;;;;;;62.97;36.30;;;;;;;;;;5092824;28;20230;-76
2022/08/18 04:44:08;;;;;;;68.67;37.27;;;;;;;;;;5092364;28;20285;-76
2022/08/18 04:46:36;;;;;;;65.63;37.13;;;;;;;;;;5092857;28;20271;-76
2022/08/18 04:49:04;;;;;;;68.00;38.10;;;;;;;;;;5092453;28;20206;-76
2022/08/18 04:51:32;;;;;;;68.97;38.37;;;;;;;;;;5092773;28;20237;-76
2022/08/18 04:53:59;;;;;;;79.67;39.50;;;;;;;;;;5092247;28;20261;-76
2022/08/18 04:56:28;;;;;;;72.17;40.23;;;;;;;;;;5092370;28;20268;-76
2022/08/18 04:58:57;;;;;;;94.57;40.43;;;;;;;;;;5092105;28;20780;-76
2022/08/18 05:01:26;;;;;;;82.77;40.97;;;;;;;;;;5092619;28;20194;-77
2022/08/18 05:03:54;;;;;;;85.07;39.43;;;;;;;;;;5092532;28;20222;-76
2022/08/18 05:06:24;;;;;;;75.73;39.73;;;;;;;;;;5092491;28;20688;-76
2022/08/18 05:08:52;;;;;;;120.37;40.13;;;;;;;;;;5092493;28;20195;-76
2022/08/18 05:11:21;;;;;;;163.70;40.13;;;;;;;;;;5094414;28;20195;-76
2022/08/18 05:13:48;;;;;;;89.37;38.03;;;;;;;;;;5095719;28;20587;-76
2022/08/18 05:16:15;;;;;;;181.63;40.57;;;;;;;;;;5095906;28;20752;-76
2022/08/18 05:18:43;;;;;;;123.37;40.00;;;;;;;;;;5096448;28;20202;-76
2022/08/18 05:21:14;;;;;;;106.80;40.67;;;;;;;;;;5095909;28;20230;-76
2022/08/18 05:23:43;;;;;;;84.60;40.57;;;;;;;;;;5095628;28;20198;-76
2022/08/18 05:26:12;;;;;;;80.23;39.23;;;;;;;;;;5108243;28;20237;-76
2022/08/18 05:28:39;;;;;;;116.00;41.40;;;;;;;;;;5115987;28;20194;-76
2022/08/18 05:31:07;;;;;;;130.67;42.80;;;;;;;;;;5116091;28;20240;-76
2022/08/18 05:33:36;;;;;;;99.37;40.50;;;;;;;;;;5116240;28;20253;-76
2022/08/18 05:36:05;;;;;;;92.00;40.43;;;;;;;;;;5116181;28;20201;-76
2022/08/18 05:38:38;;;;;;;87.07;40.03;;;;;;;;;;5116057;28;20229;-76
2022/08/18 05:41:09;;;;;;;81.83;39.03;;;;;;;;;;5115728;28;20202;-76
2022/08/18 05:43:37;;;;;;;83.80;40.07;;;;;;;;;;5116077;28;20228;-76
2022/08/18 05:46:05;;;;;;;81.77;39.03;;;;;;;;;;5115625;28;20677;-76
2022/08/18 05:48:33;;;;;;;107.47;38.80;;;;;;;;;;5115660;28;20202;-76
2022/08/18 05:51:02;;;;;;;97.95;38.05;;;;;;;;;;5103018;28;20260;-76
2022/08/18 05:59:01;;;;;;;79.37;38.93;;;;;;;;;;5095257;28;20216;-76
2022/08/18 06:01:29;;;;;;;77.97;38.53;;;;;;;;;;5095005;28;20588;-76
2022/08/18 06:03:59;;;;;;;64.73;36.60;;;;;;;;;;5095219;28;20286;-76
2022/08/18 06:06:28;;;;;;;73.23;37.57;;;;;;;;;;5095023;28;20201;-76
2022/08/18 06:08:58;;;;;;;63.00;37.23;;;;;;;;;;5095148;28;20233;-76
2022/08/18 06:11:27;;;;;;;68.20;37.08;;;;;;;;;;5094560;28;20202;-76
2022/08/18 06:13:54;;;;;;;67.95;36.53;;;;;;;;;;5094892;28;20222;-76
2022/08/18 06:16:26;;;;;;;69.60;38.15;;;;;;;;;;5095116;28;20579;-76
2022/08/18 06:18:58;;;;;;;63.63;37.80;;;;;;;;;;5095039;28;20285;-77
2022/08/18 06:21:34;;;;;;;63.57;37.63;;;;;;;;;;5094479;28;20635;-76
2022/08/18 06:24:07;;;;;;;62.47;37.17;;;;;;;;;;5094435;28;20233;-76
2022/08/18 06:26:40;;;;;;;60.45;36.75;;;;;;;;;;5094510;28;20238;-76
2022/08/18 06:29:17;;;;;;;63.90;36.47;;;;;;;;;;5094831;28;20252;-76
2022/08/18 06:31:47;;;;;;;64.72;37.22;;;;;;;;;;5094399;28;20315;-76
2022/08/18 06:34:20;;;;;;;66.40;37.90;;;;;;;;;;5094567;28;20226;-76
2022/08/18 06:36:53;;;;;;;62.80;37.00;;;;;;;;;;5094552;28;20203;-76
2022/08/18 06:39:25;;;;;;;58.65;35.75;;;;;;;;;;5094174;28;20230;-76
2022/08/18 06:41:53;;;;;;;56.80;36.53;;;;;;;;;;5094132;28;20198;-76
2022/08/18 06:44:23;;;;;;;56.05;36.08;;;;;;;;;;5094313;28;20230;-76
2022/08/18 06:46:54;;;;;;;57.80;34.95;;;;;;;;;;5094491;28;20238;-76
2022/08/18 06:49:25;;;;;;;53.60;34.72;;;;;;;;;;5094046;28;20203;-76
2022/08/18 06:51:52;;;;;;;50.92;34.63;;;;;;;;;;5104903;28;20251;-76
2022/08/18 06:54:28;;;;;;;53.13;34.88;;;;;;;;;;5113827;28;20228;-76
2022/08/18 06:56:58;;;;;;;56.90;34.97;;;;;;;;;;5114358;28;20327;-76
2022/08/18 06:59:26;;;;;;;53.30;34.55;;;;;;;;;;5114669;28;20563;-76
2022/08/18 07:01:55;;;;;;;52.63;34.53;;;;;;;;;;5114633;27;20285;-76
2022/08/18 07:04:46;;;;;;;51.42;34.47;;;;;;;;;;5114276;28;20608;-76
2022/08/18 07:07:16;;;;;;;52.20;33.78;;;;;;;;;;5098558;28;20229;-76
2022/08/18 07:09:43;;;;;;;42.88;33.10;;;;;;;;;;5114099;28;20202;-77
2022/08/18 07:12:19;;;;;;;50.10;33.65;;;;;;;;;;5114364;28;20241;-76
2022/08/18 07:14:47;;;;;;;47.38;32.95;;;;;;;;;;5113847;28;20715;-76
2022/08/18 07:17:20;;;;;;;46.80;33.85;;;;;;;;;;5113854;28;20653;-76
2022/08/18 07:19:55;;;;;;;47.63;32.20;;;;;;;;;;5113978;28;20198;-76
2022/08/18 07:22:22;;;;;;;45.42;30.48;;;;;;;;;;5113454;28;20292;-76
2022/08/18 07:24:50;;;;;;;46.28;32.03;;;;;;;;;;5113868;28;20198;-76
2022/08/18 07:27:20;;;;;;;42.78;31.48;;;;;;;;;;5104511;28;20226;-76
2022/08/18 07:30:02;;;;;;;42.10;31.02;;;;;;;;;;5093424;28;20614;-77
2022/08/18 07:32:34;;;;;;;44.17;31.73;;;;;;;;;;5093001;28;20209;-77
2022/08/18 07:35:05;;;;;;;41.38;30.65;;;;;;;;;;5092768;28;20677;-77
2022/08/18 07:37:35;;;;;;;38.17;28.65;;;;;;;;;;5093032;28;20742;-77
2022/08/18 07:40:05;;;;;;;39.78;28.95;;;;;;;;;;5093342;28;20627;-76
2022/08/18 07:42:38;;;;;;;38.13;29.30;;;;;;;;;;5093202;28;20469;-76
2022/08/18 07:45:07;;;;;;;36.17;28.35;;;;;;;;;;5093300;28;20547;-77
2022/08/18 07:47:39;;;;;;;46.38;31.67;;;;;;;;;;5093016;28;20279;-73
2022/08/18 07:50:07;;;;;;;47.72;32.80;;;;;;;;;;5092973;28;20233;-73
2022/08/18 07:52:37;;;;;;;33.78;27.20;;;;;;;;;;5098130;28;20217;-72
2022/08/18 07:55:08;;;;;;;31.95;26.80;;;;;;;;;;5113004;28;20272;-73
2022/08/18 07:57:41;;;;;;;31.85;26.08;;;;;;;;;;5112670;28;20237;-73
2022/08/18 08:00:13;;;;;;;31.98;28.38;;;;;;;;;;5113369;28;20284;-73
2022/08/18 08:02:46;;;;;;;33.10;26.92;;;;;;;;;;5113342;28;20254;-73
2022/08/18 08:05:16;;;;;;;33.03;27.00;;;;;;;;;;5112852;28;20276;-73
2022/08/18 08:07:47;;;;;;;31.65;26.52;;;;;;;;;;5112841;28;20233;-73
2022/08/18 08:10:22;;;;;;;32.08;24.17;;;;;;;;;;5112830;28;20649;-73
2022/08/18 08:12:54;;;;;;;26.02;23.05;;;;;;;;;;5113122;28;20233;-73
2022/08/18 08:15:25;;;;;;;37.97;25.33;;;;;;;;;;5113029;28;20229;-73
2022/08/18 08:17:58;;;;;;;29.02;22.23;;;;;;;;;;5112921;28;20231;-74
2022/08/18 08:20:27;;;;;;;24.02;21.48;;;;;;;;;;5112766;28;20237;-73
2022/08/18 08:23:02;;;;;;;22.83;20.25;;;;;;;;;;5112879;28;20657;-73
2022/08/18 08:25:32;;;;;;;22.20;19.92;;;;;;;;;;5113002;28;20190;-73
2022/08/18 08:28:08;;;;;;;19.88;17.88;;;;;;;;;;5099794;28;20285;-74
2022/08/18 08:30:39;;;;;;;20.90;18.77;;;;;;;;;;5092602;28;20650;-73
2022/08/18 08:33:09;;;;;;;19.40;17.38;;;;;;;;;;5092264;28;20199;-73
2022/08/18 08:35:41;;;;;;;20.25;18.25;;;;;;;;;;5092230;28;20257;-77
2022/08/18 08:38:13;;;;;;;19.58;17.60;;;;;;;;;;5092902;28;20220;-77
2022/08/18 08:40:46;;;;;;;19.55;17.58;;;;;;;;;;5092856;28;20745;-77
2022/08/18 08:43:16;;;;;;;20.85;18.85;;;;;;;;;;5093044;28;20207;-77
2022/08/18 08:45:46;;;;;;;22.55;20.17;;;;;;;;;;5094077;28;20287;-77
2022/08/18 08:48:16;;;;;;;22.35;20.05;;;;;;;;;;5096426;28;20234;-76
2022/08/18 08:50:45;;;;;;;23.20;20.65;;;;;;;;;;5096423;28;20261;-77
2022/08/18 08:53:17;;;;;;;23.33;20.92;;;;;;;;;;5096439;28;20251;-76
2022/08/18 08:55:47;;;;;;;23.45;21.05;;;;;;;;;;5116378;28;20283;-76
2022/08/18 08:58:20;;;;;;;24.23;21.63;;;;;;;;;;5116992;28;20214;-77
2022/08/18 09:00:48;;;;;;;23.65;21.13;;;;;;;;;;5117056;28;20284;-76
2022/08/18 09:03:24;;;;;;;24.13;21.30;;;;;;;;;;5116538;28;20198;-76
2022/08/18 09:05:56;;;;;;;25.45;21.17;;;;;;;;;;5116666;28;20198;-76
2022/08/18 09:08:33;;;;;;;23.60;20.95;;;;;;;;;;5116471;28;20583;-76
2022/08/18 09:11:31;;;;;;;24.20;21.13;;;;;;;;;;5116588;28;20201;-76
2022/08/18 09:14:13;;;;;;;24.33;21.73;;;;;;;;;;5053767;28;20246;-76
2022/08/18 09:16:50;;;;;;;23.83;20.83;;;;;;;;;;5041378;28;20270;-76
2022/08/18 09:19:25;;;;;;;25.08;22.38;;;;;;;;;;5053519;28;20223;-77
2022/08/18 09:21:56;;;;;;;22.83;20.42;;;;;;;;;;5053186;28;20301;-76
2022/08/18 09:24:25;;;;;;;20.65;18.60;;;;;;;;;;5053563;28;20234;-77
2022/08/18 09:26:55;;;;;;;21.25;19.10;;;;;;;;;;5053608;28;20200;-77
2022/08/18 09:29:25;;;;;;;20.98;18.88;;;;;;;;;;5053234;28;20211;-76
2022/08/18 09:32:11;;;;;;;21.63;19.42;;;;;;;;;;5053531;28;20602;-77
2022/08/18 09:34:46;;;;;;;21.80;19.60;;;;;;;;;;5052972;28;20227;-76
2022/08/18 09:37:16;;;;;;;22.17;18.70;;;;;;;;;;5053167;28;20238;-76
2022/08/18 09:42:36;;;;;;;21.23;18.77;;;;;;;;;;5053028;28;20582;-77
2022/08/18 09:45:06;;;;;;;19.30;17.25;;;;;;;;;;5052854;28;20204;-77
2022/08/18 09:47:52;;;;;;;18.95;17.17;;;;;;;;;;5064319;28;20279;-77
2022/08/18 09:50:53;;;;;;;19.98;17.98;;;;;;;;;;5095546;28;20233;-77
2022/08/18 09:53:53;;;;;;;17.48;15.77;;;;;;;;;;5095212;28;20194;-77
2022/08/18 09:56:35;;;;;;;17.75;15.85;;;;;;;;;;5109741;28;20276;-77
2022/08/18 09:59:03;;;;;;;16.05;14.43;;;;;;;;;;5115207;28;20304;-77
2022/08/18 10:01:41;;;;;;;15.68;14.00;;;;;;;;;;5115473;28;20657;-77
2022/08/18 10:04:26;;;;;;;14.90;13.38;;;;;;;;;;5116136;28;20198;-77
2022/08/18 10:06:56;;;;;;;14.23;12.73;;;;;;;;;;5115774;28;20201;-77
2022/08/18 10:09:30;;;;;;;11.48;10.40;;;;;;;;;;5115328;28;20201;-76
2022/08/18 10:12:15;;;;;;;13.95;12.52;;;;;;;;;;5115786;28;20294;-75
2022/08/18 10:14:53;;;;;;;14.38;12.90;;;;;;;;;;5114976;28;20225;-75
2022/08/18 10:17:30;;;;;;;12.80;10.93;;;;;;;;;;5115282;28;20247;-76
2022/08/18 10:20:03;;;;;;;12.63;9.88;;;;;;;;;;5115163;28;20237;-76
2022/08/18 10:22:37;;;;;;;9.50;8.70;;;;;;;;;;5115313;28;20345;-76
2022/08/18 10:25:06;;;;;;;9.10;8.23;;;;;;;;;;5115324;28;20239;-76
2022/08/18 10:27:46;;;;;;;9.40;8.43;;;;;;;;;;5114939;28;20202;-76
2022/08/18 10:30:29;;;;;;;9.07;8.27;;;;;;;;;;5094309;28;20202;-76
2022/08/18 10:32:56;;;;;;;9.05;8.25;;;;;;;;;;5094668;28;20237;-75
2022/08/18 10:35:51;;;;;;;9.27;8.25;;;;;;;;;;5094599;28;20230;-76
2022/08/18 10:38:28;;;;;;;9.70;8.70;;;;;;;;;;5094847;28;20194;-75
2022/08/18 10:41:00;;;;;;;10.07;9.07;;;;;;;;;;5094588;28;20237;-77
2022/08/18 10:43:32;;;;;;;10.30;7.53;;;;;;;;;;5094531;28;20542;-77
2022/08/18 10:46:00;;;;;;;7.00;6.30;;;;;;;;;;5093814;28;20625;-77
2022/08/18 10:48:29;;;;;;;7.60;6.90;;;;;;;;;;5094287;28;20195;-77
2022/08/18 10:50:59;;;;;;;6.38;5.78;;;;;;;;;;5094563;28;20255;-77
2022/08/18 10:53:31;;;;;;;7.63;6.90;;;;;;;;;;5094302;28;20203;-77
2022/08/18 10:56:01;;;;;;;8.48;7.40;;;;;;;;;;5096108;28;20234;-77
2022/08/18 10:58:36;;;;;;;7.20;6.50;;;;;;;;;;5114480;28;20300;-77
2022/08/18 11:01:13;;;;;;;7.00;6.25;;;;;;;;;;5114215;28;20536;-77
2022/08/18 11:04:01;;;;;;;6.93;6.20;;;;;;;;;;5114543;28;20201;-77
2022/08/18 11:06:30;;;;;;;6.80;6.10;;;;;;;;;;5114606;28;20198;-77
2022/08/18 11:09:00;;;;;;;7.75;7.05;;;;;;;;;;5113322;28;20696;-77
2022/08/18 11:11:31;;;;;;;7.80;6.75;;;;;;;;;;5114109;28;20288;-77
2022/08/18 11:14:06;;;;;;;7.00;6.35;;;;;;;;;;5113719;28;20724;-77
2022/08/18 11:16:40;;;;;;;7.28;6.50;;;;;;;;;;5114524;28;20267;-77
2022/08/18 11:19:09;;;;;;;7.43;6.82;;;;;;;;;;5113955;28;20266;-77
2022/08/18 11:21:40;;;;;;;6.30;5.65;;;;;;;;;;5114127;28;20205;-77
2022/08/18 11:24:11;;;;;;;8.00;6.25;;;;;;;;;;5114068;28;20225;-77
2022/08/18 11:26:39;;;;;;;6.57;5.80;;;;;;;;;;5114171;28;20220;-76
2022/08/18 11:29:23;;;;;;;6.38;5.78;;;;;;;;;;5102547;27;20293;-75
2022/08/18 11:31:52;;;;;;;7.32;6.28;;;;;;;;;;5093477;28;20808;-77
2022/08/18 11:34:23;;;;;;;6.60;5.63;;;;;;;;;;5093622;28;20198;-76
2022/08/18 11:36:58;;;;;;;6.00;5.50;;;;;;;;;;5093553;28;20221;-77
2022/08/18 11:39:26;;;;;;;7.05;6.35;;;;;;;;;;5093907;28;20224;-78
2022/08/18 11:41:54;;;;;;;8.23;6.53;;;;;;;;;;5093487;28;20230;-76
2022/08/18 11:44:23;;;;;;;7.18;6.47;;;;;;;;;;5093118;28;20198;-76
2022/08/18 11:46:54;;;;;;;6.57;5.97;;;;;;;;;;5093451;28;20585;-77
2022/08/18 11:49:29;;;;;;;8.13;6.05;;;;;;;;;;5093207;28;20646;-76
2022/08/18 11:51:57;;;;;;;6.25;5.65;;;;;;;;;;5093411;28;20246;-76
2022/08/18 11:54:32;;;;;;;5.32;4.82;;;;;;;;;;5093287;28;20625;-76
2022/08/18 11:57:14;;;;;;;5.35;4.88;;;;;;;;;;5098270;28;20229;-76
2022/08/18 11:59:42;;;;;;;6.13;5.53;;;;;;;;;;5113320;28;20297;-76
2022/08/18 12:02:10;;;;;;;6.07;4.93;;;;;;;;;;5113709;28;20677;-77
2022/08/18 12:04:39;;;;;;;5.68;4.82;;;;;;;;;;5113750;28;20205;-77
2022/08/18 12:07:08;;;;;;;6.18;4.95;;;;;;;;;;5113476;28;20225;-77
2022/08/18 12:09:38;;;;;;;5.80;5.22;;;;;;;;;;5113397;28;20228;-77
2022/08/18 12:12:07;;;;;;;5.88;4.10;;;;;;;;;;5113157;28;20254;-77
2022/08/18 12:14:51;;;;;;;5.38;4.88;;;;;;;;;;5113542;28;20240;-76
2022/08/18 12:17:19;;;;;;;5.90;4.45;;;;;;;;;;5113227;28;20533;-76
2022/08/18 12:19:47;;;;;;;4.75;4.25;;;;;;;;;;5115246;28;20229;-76
2022/08/18 12:22:16;;;;;;;4.85;3.75;;;;;;;;;;5117747;28;20236;-76
2022/08/18 12:24:44;;;;;;;5.70;4.55;;;;;;;;;;5117472;27;20198;-77
2022/08/18 12:27:13;;;;;;;6.20;5.32;;;;;;;;;;5117335;28;20202;-76
2022/08/18 12:29:40;;;;;;;5.50;5.00;;;;;;;;;;5106060;28;20237;-77
2022/08/18 12:32:08;;;;;;;5.43;4.78;;;;;;;;;;5097230;28;20281;-77
2022/08/18 12:34:36;;;;;;;11.02;4.88;;;;;;;;;;5097164;28;20194;-76
2022/08/18 12:37:04;;;;;;;5.82;4.90;;;;;;;;;;5096749;28;20271;-76
2022/08/18 12:39:31;;;;;;;5.50;4.45;;;;;;;;;;5096494;28;20228;-73
2022/08/18 12:41:59;;;;;;;5.78;5.10;;;;;;;;;;5096048;28;20210;-73
2022/08/18 12:44:26;;;;;;;6.40;4.88;;;;;;;;;;5096594;28;20198;-74
2022/08/18 12:46:54;;;;;;;5.75;4.53;;;;;;;;;;5096719;28;20190;-73
2022/08/18 12:49:22;;;;;;;4.50;4.10;;;;;;;;;;5096542;28;20199;-74
2022/08/18 12:51:53;;;;;;;4.88;4.13;;;;;;;;;;5096120;28;20202;-73
2022/08/18 12:54:20;;;;;;;6.70;4.60;;;;;;;;;;5096533;28;20195;-73
2022/08/18 12:56:49;;;;;;;7.60;5.05;;;;;;;;;;5095740;28;20234;-74
2022/08/18 12:59:16;;;;;;;6.90;5.10;;;;;;;;;;5109010;28;20320;-74
2022/08/18 13:01:44;;;;;;;5.47;4.93;;;;;;;;;;5116806;28;20205;-74
2022/08/18 13:04:11;;;;;;;7.03;4.35;;;;;;;;;;5116481;28;20237;-74
2022/08/18 13:06:39;;;;;;;4.85;4.30;;;;;;;;;;5116717;28;20229;-74
2022/08/18 13:09:08;;;;;;;6.25;4.65;;;;;;;;;;5116265;28;20248;-74
2022/08/18 13:11:36;;;;;;;5.43;4.75;;;;;;;;;;5116052;28;20704;-74
2022/08/18 13:14:03;;;;;;;6.25;5.20;;;;;;;;;;5116392;28;20208;-73
2022/08/18 13:16:32;;;;;;;6.32;5.05;;;;;;;;;;5116471;28;20262;-74
2022/08/18 13:18:59;;;;;;;5.82;4.97;;;;;;;;;;5116414;28;20198;-73
2022/08/18 13:21:26;;;;;;;5.60;5.00;;;;;;;;;;5115956;28;20201;-73
2022/08/18 13:23:53;;;;;;;5.20;4.70;;;;;;;;;;5116221;28;20198;-73
2022/08/18 13:26:25;;;;;;;5.30;4.80;;;;;;;;;;5115978;28;20285;-74
2022/08/18 13:28:52;;;;;;;4.47;4.07;;;;;;;;;;5116061;28;20236;-73
2022/08/18 13:31:19;;;;;;;5.57;4.78;;;;;;;;;;5114887;28;20236;-74
2022/08/18 13:33:47;;;;;;;5.57;4.28;;;;;;;;;;5115782;28;20237;-73
2022/08/18 13:36:14;;;;;;;4.93;4.22;;;;;;;;;;5115953;28;20724;-74
2022/08/18 13:38:41;;;;;;;4.43;4.03;;;;;;;;;;5115453;28;20237;-74
2022/08/18 13:41:09;;;;;;;5.53;4.13;;;;;;;;;;5115590;28;20209;-74
2022/08/18 13:43:40;;;;;;;4.68;4.25;;;;;;;;;;5115786;28;20205;-74
2022/08/18 13:46:09;;;;;;;4.20;3.80;;;;;;;;;;5115572;28;20201;-73
2022/08/18 13:48:37;;;;;;;4.75;4.25;;;;;;;;;;5115261;28;20267;-74
2022/08/18 13:51:05;;;;;;;4.65;4.22;;;;;;;;;;5115402;28;20682;-73
2022/08/18 13:53:32;;;;;;;4.40;4.00;;;;;;;;;;5115334;28;20198;-76
2022/08/18 13:56:00;;;;;;;5.38;4.18;;;;;;;;;;5115239;28;20247;-76
2022/08/18 13:58:28;;;;;;;4.32;3.92;;;;;;;;;;5115220;28;20721;-76
2022/08/18 14:00:58;;;;;;;3.85;3.47;;;;;;;;;;5115407;28;20699;-76
2022/08/18 14:03:25;;;;;;;4.15;3.80;;;;;;;;;;5115715;28;20289;-76
2022/08/18 14:05:56;;;;;;;4.18;3.78;;;;;;;;;;5115467;28;20209;-76
2022/08/18 14:08:24;;;;;;;4.03;3.70;;;;;;;;;;5114994;28;20289;-76
2022/08/18 14:10:54;;;;;;;5.10;3.95;;;;;;;;;;5115559;28;20233;-76
2022/08/18 14:13:22;;;;;;;6.32;4.03;;;;;;;;;;5115337;28;20234;-76
2022/08/18 14:15:51;;;;;;;5.68;4.18;;;;;;;;;;5115430;28;20257;-76
2022/08/18 14:18:20;;;;;;;4.75;4.35;;;;;;;;;;5115564;28;20233;-76
2022/08/18 14:29:13;;;;;;;6.93;3.97;;;;;;;;;;5115049;28;20684;-76
2022/08/18 14:31:41;;;;;;;5.95;4.13;;;;;;;;;;5107322;28;20237;-76
2022/08/18 14:34:10;;;;;;;6.13;3.70;;;;;;;;;;5094779;28;20198;-77
2022/08/18 14:36:37;;;;;;;5.80;3.80;;;;;;;;;;5094099;28;20222;-76
2022/08/18 14:39:04;;;;;;;6.47;4.00;;;;;;;;;;5094412;28;20238;-76
2022/08/18 14:41:32;;;;;;;3.88;3.53;;;;;;;;;;5094554;28;20684;-76
2022/08/18 14:44:00;;;;;;;3.90;3.50;;;;;;;;;;5094412;28;20226;-76
2022/08/18 14:46:27;;;;;;;6.47;3.60;;;;;;;;;;5094272;28;20598;-77
2022/08/18 14:48:54;;;;;;;4.00;3.60;;;;;;;;;;5094516;28;20221;-76
2022/08/18 14:51:25;;;;;;;4.85;3.42;;;;;;;;;;5094390;28;20229;-76
2022/08/18 14:53:54;;;;;;;6.18;3.78;;;;;;;;;;5105201;28;20202;-77
2022/08/18 14:56:23;;;;;;;5.43;3.60;;;;;;;;;;5113084;28;20320;-76
2022/08/18 14:58:51;;;;;;;5.72;4.13;;;;;;;;;;5111906;27;20217;-74
2022/08/18 15:01:19;;;;;;;7.68;3.75;;;;;;;;;;5095903;28;20237;-75
2022/08/18 15:03:46;;;;;;;4.75;4.00;;;;;;;;;;5103157;28;20217;-76